Time;durP1;ratioP1;P1;durP2;ratioP2;P2;SDS_P1;SDS_P2;PMS_P1;PMS_P2;Temp;Humidity;BMP_temperature;BMP_pressure;BME280_temperature;BME280_humidity;BME280_pressure;Samples;Min_cycle;Max_cycle;Signal;HPM_P1;HPM_P2
2023/05/29 00:00:59;;;;;;;;;8.75;5.25;;;;;;;;5052894;28;45679;-73
2023/05/29 00:03:25;;;;;;;;;8.50;7.50;;;;;;;;5053555;28;45481;-73
2023/05/29 00:05:50;;;;;;;;;8.00;5.25;;;;;;;;5054052;28;45406;-72
2023/05/29 00:08:15;;;;;;;;;7.25;6.50;;;;;;;;5054007;28;45347;-74
2023/05/29 00:10:40;;;;;;;;;5.00;5.00;;;;;;;;5053311;28;45532;-73
2023/05/29 00:13:06;;;;;;;;;6.00;6.00;;;;;;;;5053956;28;45464;-73
2023/05/29 00:15:31;;;;;;;;;6.50;5.25;;;;;;;;5054118;28;46020;-74
2023/05/29 00:17:57;;;;;;;;;6.00;6.00;;;;;;;;5054342;28;45431;-74
2023/05/29 00:20:22;;;;;;;;;9.75;8.25;;;;;;;;5054133;28;45458;-74
2023/05/29 00:22:47;;;;;;;;;8.75;6.25;;;;;;;;5053339;28;45355;-74
2023/05/29 00:25:14;;;;;;;;;11.00;7.00;;;;;;;;5054596;28;45505;-73
2023/05/29 00:27:40;;;;;;;;;7.25;5.00;;;;;;;;5054112;28;45565;-73
2023/05/29 00:30:05;;;;;;;;;11.00;7.75;;;;;;;;5053948;28;45342;-72
2023/05/29 00:32:31;;;;;;;;;6.50;5.50;;;;;;;;5053998;28;46248;-73
2023/05/29 00:34:56;;;;;;;;;7.75;7.75;;;;;;;;5055723;28;45424;-73
2023/05/29 00:37:21;;;;;;;;;8.50;7.75;;;;;;;;5056808;28;45307;-73
2023/05/29 00:39:47;;;;;;;;;6.25;4.25;;;;;;;;5057344;28;45605;-73
2023/05/29 00:42:12;;;;;;;;;4.25;3.25;;;;;;;;5056876;28;47173;-74
2023/05/29 00:44:37;;;;;;;;;8.00;5.25;;;;;;;;5039492;28;45430;-73
2023/05/29 00:47:03;;;;;;;;;7.50;6.50;;;;;;;;5057304;28;45343;-74
2023/05/29 00:49:28;;;;;;;;;6.00;6.00;;;;;;;;5057238;28;45601;-74
2023/05/29 00:51:54;;;;;;;;;10.25;7.00;;;;;;;;5056764;28;46377;-74
2023/05/29 00:54:21;;;;;;;;;6.50;5.25;;;;;;;;5056895;28;45416;-73
2023/05/29 00:56:47;;;;;;;;;7.25;6.50;;;;;;;;5057021;28;45398;-73
2023/05/29 00:59:12;;;;;;;;;9.00;6.25;;;;;;;;5056676;28;45456;-74
2023/05/29 01:01:37;;;;;;;;;5.50;4.50;;;;;;;;5055489;28;45344;-74
2023/05/29 01:04:06;;;;;;;;;8.25;6.75;;;;;;;;5056336;28;45410;-74
2023/05/29 01:06:31;;;;;;;;;6.00;5.50;;;;;;;;5056650;28;45296;-73
2023/05/29 01:08:56;;;;;;;;;6.25;5.00;;;;;;;;5056276;28;45355;-73
2023/05/29 01:11:31;;;;;;;;;8.75;5.00;;;;;;;;5056370;28;46240;-74
2023/05/29 01:14:00;;;;;;;;;5.25;5.25;;;;;;;;5057215;28;45320;-73
2023/05/29 01:16:47;;;;;;;;;6.50;4.75;;;;;;;;5056716;28;45441;-74
2023/05/29 01:19:15;;;;;;;;;8.25;5.50;;;;;;;;5057026;28;45346;-73
2023/05/29 01:21:40;;;;;;;;;6.00;6.00;;;;;;;;5055856;28;46378;-74
2023/05/29 01:24:05;;;;;;;;;7.50;7.50;;;;;;;;5056648;28;45513;-74
2023/05/29 01:27:06;;;;;;;;;7.75;6.00;;;;;;;;5056751;28;45428;-74
2023/05/29 01:29:33;;;;;;;;;7.75;5.25;;;;;;;;5013999;28;45385;-74
2023/05/29 01:31:59;;;;;;;;;8.25;6.75;;;;;;;;5013833;28;47479;-74
2023/05/29 01:34:24;;;;;;;;;6.50;5.50;;;;;;;;5013975;28;45455;-73
2023/05/29 01:36:49;;;;;;;;;5.25;4.75;;;;;;;;5013779;28;45355;-74
2023/05/29 01:39:15;;;;;;;;;4.00;3.00;;;;;;;;5013992;28;45408;-73
2023/05/29 01:41:41;;;;;;;;;8.50;6.50;;;;;;;;5013873;28;47113;-73
2023/05/29 01:44:08;;;;;;;;;9.50;8.25;;;;;;;;5014104;28;45475;-74
2023/05/29 01:46:33;;;;;;;;;5.50;5.50;;;;;;;;5013637;28;45432;-74
2023/05/29 01:48:59;;;;;;;;;9.00;5.75;;;;;;;;5013932;28;45373;-74
2023/05/29 01:51:24;;;;;;;;;6.00;5.75;;;;;;;;5014010;28;47203;-73
2023/05/29 01:53:50;;;;;;;;;6.00;6.00;;;;;;;;5013893;28;45700;-74
2023/05/29 01:56:15;;;;;;;;;8.75;5.75;;;;;;;;5014280;28;45495;-73
2023/05/29 01:58:40;;;;;;;;;8.75;7.75;;;;;;;;5013947;28;45479;-74
2023/05/29 02:01:06;;;;;;;;;5.50;5.00;;;;;;;;5014247;28;46371;-73
2023/05/29 02:03:32;;;;;;;;;5.75;5.00;;;;;;;;5035320;28;45520;-74
2023/05/29 02:05:58;;;;;;;;;5.50;5.50;;;;;;;;5055931;28;45485;-73
2023/05/29 02:08:23;;;;;;;;;10.00;4.75;;;;;;;;5056022;28;45558;-73
2023/05/29 02:10:48;;;;;;;;;9.50;7.00;;;;;;;;5053579;28;47737;-74
2023/05/29 02:13:14;;;;;;;;;6.25;6.25;;;;;;;;5054973;28;45556;-73
2023/05/29 02:15:40;;;;;;;;;7.75;6.00;;;;;;;;5055008;28;45527;-73
2023/05/29 02:18:05;;;;;;;;;4.50;4.25;;;;;;;;5054919;28;45456;-74
2023/05/29 02:20:31;;;;;;;;;6.50;5.75;;;;;;;;5055709;28;46315;-73
2023/05/29 02:22:56;;;;;;;;;5.50;5.50;;;;;;;;5054531;28;45362;-74
2023/05/29 02:25:21;;;;;;;;;5.00;5.00;;;;;;;;5056128;28;45299;-74
2023/05/29 02:27:46;;;;;;;;;4.25;4.25;;;;;;;;5056141;28;45563;-73
2023/05/29 02:30:11;;;;;;;;;5.00;4.50;;;;;;;;5055792;28;46239;-74
2023/05/29 02:32:37;;;;;;;;;6.75;6.50;;;;;;;;5055445;28;45316;-74
2023/05/29 02:35:02;;;;;;;;;7.25;7.25;;;;;;;;5055964;28;45359;-74
2023/05/29 02:37:28;;;;;;;;;5.25;5.25;;;;;;;;5055866;28;45333;-73
2023/05/29 02:39:53;;;;;;;;;9.50;6.75;;;;;;;;5055958;28;45525;-73
2023/05/29 02:42:18;;;;;;;;;8.00;7.25;;;;;;;;5055466;28;45632;-73
2023/05/29 02:44:43;;;;;;;;;5.75;4.50;;;;;;;;5054156;28;45675;-73
2023/05/29 02:47:09;;;;;;;;;7.00;5.25;;;;;;;;5054367;28;45804;-74
2023/05/29 02:49:34;;;;;;;;;8.25;5.25;;;;;;;;5055337;28;47009;-73
2023/05/29 02:51:59;;;;;;;;;7.75;7.00;;;;;;;;5055688;28;45327;-74
2023/05/29 02:54:25;;;;;;;;;7.25;6.50;;;;;;;;5055314;28;45449;-74
2023/05/29 02:56:50;;;;;;;;;9.00;7.75;;;;;;;;5054187;28;45568;-73
2023/05/29 02:59:16;;;;;;;;;7.00;6.50;;;;;;;;5054204;28;46080;-73
2023/05/29 03:01:42;;;;;;;;;8.50;6.50;;;;;;;;5054082;28;45467;-74
2023/05/29 03:04:08;;;;;;;;;6.00;6.00;;;;;;;;5054849;28;45370;-74
2023/05/29 03:06:34;;;;;;;;;9.00;7.50;;;;;;;;5055126;28;45478;-74
2023/05/29 03:08:59;;;;;;;;;5.25;4.50;;;;;;;;5054573;28;47315;-73
2023/05/29 03:11:24;;;;;;;;;5.25;5.25;;;;;;;;5054651;28;45296;-74
2023/05/29 03:13:50;;;;;;;;;6.75;5.50;;;;;;;;5054949;28;45419;-74
2023/05/29 03:16:16;;;;;;;;;6.50;4.50;;;;;;;;5054671;28;45348;-74
2023/05/29 03:18:41;;;;;;;;;10.00;7.00;;;;;;;;5054879;28;46948;-74
2023/05/29 03:21:06;;;;;;;;;6.75;6.75;;;;;;;;5054329;28;45317;-73
2023/05/29 03:23:31;;;;;;;;;9.25;6.50;;;;;;;;5054845;28;45411;-74
2023/05/29 03:25:57;;;;;;;;;4.50;4.50;;;;;;;;5055224;28;45310;-73
2023/05/29 03:28:22;;;;;;;;;5.75;4.00;;;;;;;;5054606;28;47310;-73
2023/05/29 03:30:47;;;;;;;;;11.50;8.25;;;;;;;;5054262;28;45308;-74
2023/05/29 03:33:13;;;;;;;;;9.25;7.50;;;;;;;;5054765;28;45229;-73
2023/05/29 03:35:38;;;;;;;;;11.50;11.25;;;;;;;;5054984;28;45285;-73
2023/05/29 03:38:03;;;;;;;;;10.00;10.00;;;;;;;;5054811;28;47246;-74
2023/05/29 03:40:28;;;;;;;;;8.75;8.75;;;;;;;;5052982;28;45419;-74
2023/05/29 03:42:53;;;;;;;;;9.25;7.50;;;;;;;;5053738;28;45486;-73
2023/05/29 03:45:19;;;;;;;;;9.75;5.75;;;;;;;;5054538;28;45371;-74
2023/05/29 03:47:44;;;;;;;;;10.50;9.00;;;;;;;;5054798;28;45301;-74
2023/05/29 03:50:09;;;;;;;;;7.00;5.75;;;;;;;;5054591;28;45418;-74
2023/05/29 03:52:35;;;;;;;;;8.00;8.00;;;;;;;;5054947;28;45487;-74
2023/05/29 03:55:00;;;;;;;;;9.75;8.00;;;;;;;;5054613;28;45481;-73
2023/05/29 03:57:26;;;;;;;;;7.25;5.75;;;;;;;;5054629;28;45524;-73
2023/05/29 03:59:51;;;;;;;;;8.75;8.75;;;;;;;;5054499;28;45424;-74
2023/05/29 04:02:16;;;;;;;;;7.50;6.25;;;;;;;;5054444;28;45446;-73
2023/05/29 04:04:42;;;;;;;;;7.50;7.50;;;;;;;;5054191;28;45382;-73
2023/05/29 04:07:08;;;;;;;;;8.50;7.50;;;;;;;;5054001;28;46046;-74
2023/05/29 04:09:33;;;;;;;;;9.75;9.25;;;;;;;;5055332;28;45550;-74
2023/05/29 04:12:02;;;;;;;;;11.50;9.50;;;;;;;;5057988;28;45865;-73
2023/05/29 04:14:27;;;;;;;;;9.75;8.25;;;;;;;;5058034;28;45490;-73
2023/05/29 04:16:52;;;;;;;;;8.75;8.75;;;;;;;;5057616;28;46561;-74
2023/05/29 04:19:17;;;;;;;;;9.75;9.25;;;;;;;;5056737;28;45450;-73
2023/05/29 04:21:42;;;;;;;;;10.00;9.00;;;;;;;;5057361;28;45411;-74
2023/05/29 04:24:08;;;;;;;;;11.00;10.00;;;;;;;;5057801;28;45398;-73
2023/05/29 04:26:33;;;;;;;;;10.50;8.75;;;;;;;;5057950;28;46415;-74
2023/05/29 04:28:58;;;;;;;;;10.00;8.75;;;;;;;;5057749;28;45614;-74
2023/05/29 04:31:26;;;;;;;;;10.50;9.00;;;;;;;;5057403;28;45428;-73
2023/05/29 04:33:55;;;;;;;;;10.00;10.00;;;;;;;;5057312;28;45379;-74
2023/05/29 04:36:25;;;;;;;;;12.25;9.75;;;;;;;;5057464;28;47713;-73
2023/05/29 04:38:51;;;;;;;;;11.00;7.75;;;;;;;;5057161;28;45429;-73
2023/05/29 04:41:16;;;;;;;;;10.25;9.50;;;;;;;;5057665;28;45418;-73
2023/05/29 04:43:41;;;;;;;;;13.50;9.75;;;;;;;;5057470;28;45413;-73
2023/05/29 04:46:07;;;;;;;;;6.50;6.50;;;;;;;;5057505;28;46252;-73
2023/05/29 04:48:32;;;;;;;;;14.50;9.50;;;;;;;;5057082;28;45433;-73
2023/05/29 04:50:59;;;;;;;;;10.25;10.00;;;;;;;;5057560;28;45558;-73
2023/05/29 04:53:24;;;;;;;;;13.00;10.75;;;;;;;;5057299;28;45377;-73
2023/05/29 04:55:49;;;;;;;;;14.00;13.00;;;;;;;;5057069;28;45453;-74
2023/05/29 04:58:15;;;;;;;;;13.25;12.75;;;;;;;;5055799;28;45395;-73
2023/05/29 05:00:40;;;;;;;;;14.25;13.00;;;;;;;;5057496;28;45438;-74
2023/05/29 05:03:05;;;;;;;;;15.75;15.75;;;;;;;;5056914;28;45335;-70
2023/05/29 05:05:31;;;;;;;;;14.75;10.25;;;;;;;;5055445;28;45764;-71
2023/05/29 05:07:56;;;;;;;;;12.25;11.25;;;;;;;;5057165;28;45336;-72
2023/05/29 05:10:21;;;;;;;;;15.75;11.00;;;;;;;;5057080;28;45336;-73
2023/05/29 05:12:46;;;;;;;;;12.50;11.50;;;;;;;;5057012;28;45473;-75
2023/05/29 05:15:12;;;;;;;;;10.75;10.00;;;;;;;;5057133;28;46174;-73
2023/05/29 05:17:37;;;;;;;;;10.25;10.25;;;;;;;;5057063;28;45373;-74
2023/05/29 05:20:04;;;;;;;;;13.75;12.50;;;;;;;;5056614;28;45317;-75
2023/05/29 05:22:29;;;;;;;;;15.00;14.50;;;;;;;;5056176;28;45362;-75
2023/05/29 05:24:55;;;;;;;;;11.00;11.00;;;;;;;;5057055;28;45918;-75
2023/05/29 05:27:20;;;;;;;;;11.50;10.00;;;;;;;;5056267;28;45457;-75
2023/05/29 05:29:45;;;;;;;;;16.00;13.00;;;;;;;;5056916;28;45532;-75
2023/05/29 05:32:11;;;;;;;;;11.25;11.25;;;;;;;;5055141;28;45307;-68
2023/05/29 05:34:36;;;;;;;;;12.75;11.50;;;;;;;;5055291;28;46353;-75
2023/05/29 05:37:02;;;;;;;;;12.00;12.00;;;;;;;;5056641;28;45435;-74
2023/05/29 05:39:27;;;;;;;;;11.25;9.75;;;;;;;;5056191;28;45429;-74
2023/05/29 05:41:52;;;;;;;;;13.50;12.50;;;;;;;;5056286;28;45323;-73
2023/05/29 05:44:18;;;;;;;;;13.00;10.25;;;;;;;;5056265;28;47040;-75
2023/05/29 05:46:43;;;;;;;;;13.25;13.25;;;;;;;;5056643;28;45510;-74
2023/05/29 05:49:08;;;;;;;;;11.50;11.50;;;;;;;;5056767;28;45455;-74
2023/05/29 05:51:33;;;;;;;;;14.50;13.25;;;;;;;;5056514;28;45500;-76
2023/05/29 05:53:59;;;;;;;;;14.00;12.00;;;;;;;;5056619;28;45500;-74
2023/05/29 05:56:25;;;;;;;;;14.75;10.50;;;;;;;;5055896;28;45592;-74
2023/05/29 05:58:50;;;;;;;;;13.00;12.00;;;;;;;;5056295;28;45381;-73
2023/05/29 06:01:15;;;;;;;;;15.50;13.00;;;;;;;;5054879;28;45384;-74
2023/05/29 06:03:40;;;;;;;;;12.00;9.50;;;;;;;;5056084;28;46286;-73
2023/05/29 06:06:07;;;;;;;;;13.75;12.75;;;;;;;;5056133;28;45357;-74
2023/05/29 06:08:32;;;;;;;;;13.25;12.00;;;;;;;;5055924;28;45374;-74
2023/05/29 06:10:57;;;;;;;;;9.75;9.75;;;;;;;;5054269;27;45474;-74
2023/05/29 06:13:22;;;;;;;;;11.00;10.75;;;;;;;;5055856;28;45746;-74
2023/05/29 06:15:48;;;;;;;;;14.25;11.75;;;;;;;;5055929;28;45554;-74
2023/05/29 06:18:13;;;;;;;;;14.00;11.25;;;;;;;;5054741;28;45422;-74
2023/05/29 06:20:38;;;;;;;;;11.75;11.50;;;;;;;;5055581;28;45264;-75
2023/05/29 06:23:03;;;;;;;;;13.00;9.00;;;;;;;;5055539;28;46422;-74
2023/05/29 06:25:38;;;;;;;;;11.75;11.75;;;;;;;;5055373;28;45430;-74
2023/05/29 06:28:05;;;;;;;;;11.25;10.50;;;;;;;;5055614;28;45447;-75
2023/05/29 06:30:31;;;;;;;;;13.00;12.25;;;;;;;;5055544;28;45455;-73
2023/05/29 06:32:56;;;;;;;;;12.25;11.00;;;;;;;;5054911;28;46140;-74
2023/05/29 06:35:21;;;;;;;;;12.75;11.75;;;;;;;;5055652;28;45381;-74
2023/05/29 06:37:46;;;;;;;;;12.75;12.75;;;;;;;;5056177;28;45433;-75
2023/05/29 06:40:12;;;;;;;;;14.00;11.00;;;;;;;;5055329;28;45312;-73
2023/05/29 06:42:37;;;;;;;;;8.50;8.50;;;;;;;;5055508;28;46903;-75
2023/05/29 06:45:03;;;;;;;;;11.75;11.00;;;;;;;;5053963;28;45343;-75
2023/05/29 06:47:28;;;;;;;;;13.50;12.25;;;;;;;;5055598;28;45378;-73
2023/05/29 06:49:53;;;;;;;;;11.00;11.00;;;;;;;;5055406;28;45523;-74
2023/05/29 06:52:18;;;;;;;;;12.00;11.75;;;;;;;;5055316;28;46034;-74
2023/05/29 06:54:44;;;;;;;;;16.25;13.75;;;;;;;;5055342;28;45348;-74
2023/05/29 06:57:10;;;;;;;;;13.00;10.75;;;;;;;;5055413;28;45323;-73
2023/05/29 06:59:35;;;;;;;;;12.25;12.00;;;;;;;;5055232;28;45552;-73
2023/05/29 07:02:00;;;;;;;;;14.25;13.25;;;;;;;;5053227;28;46349;-73
2023/05/29 07:04:26;;;;;;;;;15.50;13.75;;;;;;;;5054427;28;45311;-74
2023/05/29 07:06:51;;;;;;;;;13.00;11.25;;;;;;;;5054382;28;45430;-72
2023/05/29 07:09:16;;;;;;;;;4.00;3.00;;;;;;;;5054654;28;45476;-73
2023/05/29 07:11:41;;;;;;;;;15.25;14.50;;;;;;;;5053889;28;46085;-74
2023/05/29 07:14:07;;;;;;;;;16.25;16.00;;;;;;;;5053662;28;45370;-74
2023/05/29 07:16:32;;;;;;;;;13.75;12.00;;;;;;;;5055016;28;45454;-75
2023/05/29 07:18:57;;;;;;;;;15.25;14.00;;;;;;;;5075365;27;45546;-73
2023/05/29 07:21:22;;;;;;;;;13.50;12.50;;;;;;;;5057111;27;46554;-73
2023/05/29 07:23:48;;;;;;;;;15.50;12.75;;;;;;;;5054306;28;45366;-74
2023/05/29 07:26:13;;;;;;;;;10.75;8.75;;;;;;;;5054612;28;45451;-73
2023/05/29 07:28:38;;;;;;;;;12.25;11.75;;;;;;;;5054788;28;45435;-73
2023/05/29 07:31:03;;;;;;;;;16.50;14.00;;;;;;;;5054167;28;45549;-73
2023/05/29 07:33:28;;;;;;;;;18.00;13.25;;;;;;;;5054015;28;45358;-74
2023/05/29 07:35:54;;;;;;;;;14.50;14.25;;;;;;;;5054929;28;45525;-76
2023/05/29 07:38:19;;;;;;;;;13.25;13.00;;;;;;;;5054741;28;45451;-76
2023/05/29 07:40:44;;;;;;;;;14.75;13.25;;;;;;;;5054579;28;46126;-75
2023/05/29 07:43:09;;;;;;;;;15.75;14.75;;;;;;;;5054431;28;45434;-75
2023/05/29 07:45:35;;;;;;;;;14.00;12.00;;;;;;;;5052432;28;45464;-75
2023/05/29 07:48:00;;;;;;;;;9.25;9.25;;;;;;;;5054283;28;45453;-74
2023/05/29 07:50:25;;;;;;;;;13.75;12.25;;;;;;;;5054176;28;45611;-74
2023/05/29 07:52:50;;;;;;;;;12.75;12.50;;;;;;;;5054668;28;45464;-75
2023/05/29 07:55:16;;;;;;;;;15.00;14.00;;;;;;;;5053628;28;45442;-75
2023/05/29 07:57:42;;;;;;;;;16.25;15.00;;;;;;;;5054143;28;45439;-75
2023/05/29 08:00:07;;;;;;;;;15.00;13.75;;;;;;;;5053048;28;46151;-75
2023/05/29 08:02:33;;;;;;;;;12.75;11.25;;;;;;;;5053523;28;45442;-74
2023/05/29 08:04:58;;;;;;;;;16.00;14.00;;;;;;;;5054292;28;45548;-74
2023/05/29 08:07:23;;;;;;;;;16.50;15.00;;;;;;;;5052460;28;45407;-74
2023/05/29 08:09:49;;;;;;;;;18.25;15.00;;;;;;;;5053222;28;46290;-74
2023/05/29 08:12:14;;;;;;;;;15.00;14.50;;;;;;;;5053678;28;45527;-73
2023/05/29 08:14:39;;;;;;;;;13.00;13.00;;;;;;;;5053689;28;45354;-73
2023/05/29 08:17:05;;;;;;;;;11.25;11.25;;;;;;;;5053109;28;45589;-73
2023/05/29 08:19:30;;;;;;;;;13.00;12.25;;;;;;;;5052918;28;45971;-73
2023/05/29 08:21:55;;;;;;;;;15.25;14.00;;;;;;;;5052196;28;45401;-73
2023/05/29 08:24:20;;;;;;;;;14.00;13.50;;;;;;;;5053170;28;45628;-74
2023/05/29 08:26:46;;;;;;;;;15.50;13.75;;;;;;;;5052990;28;45359;-75
2023/05/29 08:29:11;;;;;;;;;16.00;16.00;;;;;;;;5053095;28;47326;-76
2023/05/29 08:31:37;;;;;;;;;14.50;12.25;;;;;;;;5052328;28;45381;-76
2023/05/29 08:34:02;;;;;;;;;13.00;12.50;;;;;;;;5053804;28;45398;-75
2023/05/29 08:36:27;;;;;;;;;14.00;12.50;;;;;;;;5053922;28;45442;-61
2023/05/29 08:38:53;;;;;;;;;14.00;11.50;;;;;;;;5053774;28;45345;-63
2023/05/29 08:41:25;;;;;;;;;15.75;15.25;;;;;;;;5053115;28;45475;-63
2023/05/29 08:43:52;;;;;;;;;18.75;16.00;;;;;;;;5053757;28;45416;-63
2023/05/29 08:46:17;;;;;;;;;1.25;1.00;;;;;;;;5053806;28;45428;-62
2023/05/29 08:48:47;;;;;;;;;13.50;12.50;;;;;;;;5053823;28;46396;-63
2023/05/29 08:51:13;;;;;;;;;15.25;14.25;;;;;;;;5052526;28;45449;-62
2023/05/29 08:53:40;;;;;;;;;9.25;9.25;;;;;;;;5053178;28;45364;-62
2023/05/29 08:56:05;;;;;;;;;14.75;14.75;;;;;;;;5054299;28;45672;-62
2023/05/29 08:58:31;;;;;;;;;17.50;15.75;;;;;;;;5056529;28;45652;-63
2023/05/29 09:00:56;;;;;;;;;14.25;10.75;;;;;;;;5056601;28;45498;-63
2023/05/29 09:03:22;;;;;;;;;19.50;18.00;;;;;;;;5056869;28;45416;-62
2023/05/29 09:05:48;;;;;;;;;17.75;15.50;;;;;;;;5057068;28;45360;-62
2023/05/29 09:08:15;;;;;;;;;17.50;13.50;;;;;;;;5057112;28;46244;-63
2023/05/29 09:10:43;;;;;;;;;16.75;14.25;;;;;;;;5056561;27;45439;-62
2023/05/29 09:13:09;;;;;;;;;15.00;13.75;;;;;;;;5057151;28;45360;-62
2023/05/29 09:15:35;;;;;;;;;11.75;11.75;;;;;;;;5057093;28;45391;-63
2023/05/29 09:18:00;;;;;;;;;16.50;14.00;;;;;;;;5055582;28;45693;-62
2023/05/29 09:20:27;;;;;;;;;14.75;11.50;;;;;;;;5055540;28;45289;-65
2023/05/29 09:22:55;;;;;;;;;16.75;15.25;;;;;;;;5055994;28;45440;-65
2023/05/29 09:25:22;;;;;;;;;15.25;13.50;;;;;;;;5056858;28;45428;-68
2023/05/29 09:27:50;;;;;;;;;13.25;12.25;;;;;;;;5056803;28;47374;-67
2023/05/29 09:30:30;;;;;;;;;10.25;10.25;;;;;;;;5055154;28;45516;-67
2023/05/29 09:32:55;;;;;;;;;15.00;12.75;;;;;;;;5056910;28;45461;-66
2023/05/29 09:35:21;;;;;;;;;13.75;12.75;;;;;;;;5056286;28;45460;-66
2023/05/29 09:37:46;;;;;;;;;14.00;13.75;;;;;;;;5056681;28;46381;-68
2023/05/29 09:40:11;;;;;;;;;13.25;12.25;;;;;;;;5056668;28;45561;-68
2023/05/29 09:42:37;;;;;;;;;14.75;13.75;;;;;;;;5056317;28;45415;-68
2023/05/29 09:45:04;;;;;;;;;14.25;12.00;;;;;;;;5055446;28;45816;-68
2023/05/29 09:47:32;;;;;;;;;14.25;13.25;;;;;;;;5055963;28;47366;-68
2023/05/29 09:50:00;;;;;;;;;10.50;10.00;;;;;;;;5055515;28;45782;-67
2023/05/29 09:52:26;;;;;;;;;14.75;13.75;;;;;;;;5055929;28;45489;-68
2023/05/29 09:54:51;;;;;;;;;9.75;9.00;;;;;;;;5055738;28;45589;-68
2023/05/29 09:57:17;;;;;;;;;14.25;11.00;;;;;;;;5055639;28;45530;-70
2023/05/29 09:59:48;;;;;;;;;14.25;12.75;;;;;;;;5056230;28;45397;-66
2023/05/29 10:02:15;;;;;;;;;11.50;11.50;;;;;;;;5056481;28;45382;-70
2023/05/29 10:04:40;;;;;;;;;13.00;13.00;;;;;;;;5056154;28;45338;-69
2023/05/29 10:07:11;;;;;;;;;13.00;12.00;;;;;;;;5055700;28;45683;-68
2023/05/29 10:09:41;;;;;;;;;5.75;5.75;;;;;;;;5056593;28;45453;-68
2023/05/29 10:12:07;;;;;;;;;10.25;9.25;;;;;;;;5056109;28;45327;-68
2023/05/29 10:14:33;;;;;;;;;13.25;12.50;;;;;;;;5054871;28;45414;-68
2023/05/29 10:17:01;;;;;;;;;12.00;12.00;;;;;;;;5055691;28;45889;-68
2023/05/29 10:19:29;;;;;;;;;13.25;12.25;;;;;;;;5055865;28;45418;-68
2023/05/29 10:21:55;;;;;;;;;10.00;10.00;;;;;;;;5056270;28;45425;-68
2023/05/29 10:24:21;;;;;;;;;13.25;11.50;;;;;;;;5054797;28;45497;-68
2023/05/29 10:26:47;;;;;;;;;8.00;8.00;;;;;;;;5055507;28;46287;-68
2023/05/29 10:29:30;;;;;;;;;11.50;10.00;;;;;;;;5055982;28;45509;-68
2023/05/29 10:32:16;;;;;;;;;12.25;9.75;;;;;;;;5055662;28;45355;-68
2023/05/29 10:34:41;;;;;;;;;9.75;9.75;;;;;;;;5055766;28;45559;-68
2023/05/29 10:37:06;;;;;;;;;14.25;11.75;;;;;;;;5053680;28;47246;-68
2023/05/29 10:39:33;;;;;;;;;12.75;11.50;;;;;;;;5054960;28;45567;-68
2023/05/29 10:41:59;;;;;;;;;10.25;9.75;;;;;;;;5054895;28;45465;-70
2023/05/29 10:44:30;;;;;;;;;9.00;9.00;;;;;;;;5055167;28;45566;-71
2023/05/29 10:46:57;;;;;;;;;11.50;10.50;;;;;;;;5054765;28;45497;-68
2023/05/29 10:49:22;;;;;;;;;10.50;10.50;;;;;;;;5053346;28;45352;-69
2023/05/29 10:51:48;;;;;;;;;16.00;12.25;;;;;;;;5055187;28;45369;-69
2023/05/29 10:54:14;;;;;;;;;10.50;10.50;;;;;;;;5055121;28;45386;-69
2023/05/29 10:56:41;;;;;;;;;13.00;10.00;;;;;;;;5054752;28;45974;-70
2023/05/29 10:59:07;;;;;;;;;6.50;6.50;;;;;;;;5054942;28;45419;-67
2023/05/29 11:01:32;;;;;;;;;53.75;44.75;;;;;;;;5054372;28;45553;-68
2023/05/29 11:04:21;;;;;;;;;19.25;19.25;;;;;;;;5054479;28;45319;-72
2023/05/29 11:06:46;;;;;;;;;14.50;12.25;;;;;;;;5051089;28;46383;-68
2023/05/29 11:09:34;;;;;;;;;13.50;12.25;;;;;;;;5055090;28;45575;-69
2023/05/29 11:12:13;;;;;;;;;14.25;14.25;;;;;;;;5055186;28;45418;-69
2023/05/29 11:14:48;;;;;;;;;12.50;11.50;;;;;;;;5055253;28;45675;-69
2023/05/29 11:17:32;;;;;;;;;11.50;11.00;;;;;;;;5052807;28;45386;-69
2023/05/29 11:20:02;;;;;;;;;11.50;11.50;;;;;;;;5051189;28;45429;-68
2023/05/29 11:22:32;;;;;;;;;11.25;10.50;;;;;;;;5051891;28;45457;-68
2023/05/29 11:24:59;;;;;;;;;17.50;15.25;;;;;;;;5055026;28;45474;-68
2023/05/29 11:27:25;;;;;;;;;10.50;9.25;;;;;;;;5054671;28;45920;-68
2023/05/29 11:29:53;;;;;;;;;11.50;11.50;;;;;;;;5053032;28;45525;-67
2023/05/29 11:32:19;;;;;;;;;11.50;11.00;;;;;;;;5054844;28;45410;-67
2023/05/29 11:34:46;;;;;;;;;11.00;9.00;;;;;;;;5055373;28;45327;-67
2023/05/29 11:37:11;;;;;;;;;17.75;13.25;;;;;;;;5054893;28;47327;-68
2023/05/29 11:39:37;;;;;;;;;16.00;15.00;;;;;;;;5054616;28;45451;-68
2023/05/29 11:42:03;;;;;;;;;12.00;11.25;;;;;;;;5054463;28;45359;-69
2023/05/29 11:44:28;;;;;;;;;10.00;10.00;;;;;;;;5055002;28;45448;-68
2023/05/29 11:47:06;;;;;;;;;11.00;11.00;;;;;;;;5054544;28;46303;-68
2023/05/29 11:49:33;;;;;;;;;10.00;10.00;;;;;;;;5054263;28;45478;-66
2023/05/29 11:52:09;;;;;;;;;12.00;10.50;;;;;;;;5052341;28;45418;-67
2023/05/29 11:54:34;;;;;;;;;7.50;7.50;;;;;;;;5053052;28;45383;-67
2023/05/29 11:57:00;;;;;;;;;4.50;4.50;;;;;;;;5053927;28;45477;-66
2023/05/29 11:59:28;;;;;;;;;8.50;6.50;;;;;;;;5054118;28;45451;-67
2023/05/29 12:01:53;;;;;;;;;10.50;9.25;;;;;;;;5053853;28;45520;-67
2023/05/29 12:04:18;;;;;;;;;8.50;8.25;;;;;;;;5053177;28;45558;-68
2023/05/29 12:06:44;;;;;;;;;11.50;8.00;;;;;;;;5052478;28;47367;-68
2023/05/29 12:09:09;;;;;;;;;9.00;7.25;;;;;;;;5053976;28;45521;-68
2023/05/29 12:11:34;;;;;;;;;11.00;9.75;;;;;;;;5053881;28;45509;-67
2023/05/29 12:14:00;;;;;;;;;7.25;7.25;;;;;;;;5053977;28;45488;-67
2023/05/29 12:16:27;;;;;;;;;4.50;4.50;;;;;;;;5053849;28;46370;-68
2023/05/29 12:18:52;;;;;;;;;4.50;4.50;;;;;;;;5054141;28;45533;-68
2023/05/29 12:21:19;;;;;;;;;8.00;6.00;;;;;;;;5040539;28;45834;-68
2023/05/29 12:23:44;;;;;;;;;7.75;6.25;;;;;;;;5046257;28;45660;-66
2023/05/29 12:26:09;;;;;;;;;5.50;5.50;;;;;;;;5058382;28;45469;-66
2023/05/29 12:28:35;;;;;;;;;7.00;6.00;;;;;;;;5068189;27;45550;-66
2023/05/29 12:31:00;;;;;;;;;5.50;4.50;;;;;;;;5064688;28;45429;-66
2023/05/29 12:33:27;;;;;;;;;7.75;5.00;;;;;;;;5063194;28;45545;-66
2023/05/29 12:35:53;;;;;;;;;6.25;6.25;;;;;;;;5064634;28;47353;-66
2023/05/29 12:38:19;;;;;;;;;11.00;9.25;;;;;;;;5053575;28;45331;-67
2023/05/29 12:40:48;;;;;;;;;5.00;5.00;;;;;;;;5056493;28;45456;-67
2023/05/29 12:43:13;;;;;;;;;6.25;3.75;;;;;;;;5067541;28;45382;-68
2023/05/29 12:45:39;;;;;;;;;8.75;8.75;;;;;;;;5061731;28;47175;-68
2023/05/29 12:48:05;;;;;;;;;4.75;4.75;;;;;;;;5073325;28;45445;-68
2023/05/29 12:50:34;;;;;;;;;1.25;1.00;;;;;;;;5061425;28;45470;-68
2023/05/29 12:53:01;;;;;;;;;3.00;3.00;;;;;;;;5066984;28;45553;-67
2023/05/29 12:55:33;;;;;;;;;7.75;6.25;;;;;;;;5069717;28;45465;-68
2023/05/29 12:57:58;;;;;;;;;3.25;3.25;;;;;;;;5056191;27;45362;-68
2023/05/29 13:00:23;;;;;;;;;2.50;2.50;;;;;;;;5050630;28;45546;-68
2023/05/29 13:02:49;;;;;;;;;3.25;3.25;;;;;;;;5063292;28;45342;-68
2023/05/29 13:05:15;;;;;;;;;6.00;4.00;;;;;;;;5065207;27;45436;-68
2023/05/29 13:07:40;;;;;;;;;9.50;8.50;;;;;;;;5052123;28;45469;-67
2023/05/29 13:10:06;;;;;;;;;4.00;2.75;;;;;;;;5063410;28;45786;-67
2023/05/29 13:12:31;;;;;;;;;6.00;6.00;;;;;;;;5061314;28;45298;-67
2023/05/29 13:14:56;;;;;;;;;4.25;4.25;;;;;;;;5068541;27;45383;-66
2023/05/29 13:17:21;;;;;;;;;5.00;4.00;;;;;;;;5057083;28;45362;-68
2023/05/29 13:19:47;;;;;;;;;3.00;3.00;;;;;;;;5059465;28;45362;-67
2023/05/29 13:22:12;;;;;;;;;3.50;2.75;;;;;;;;5072442;28;45524;-68
2023/05/29 13:24:37;;;;;;;;;1.75;1.75;;;;;;;;5062124;28;46433;-65
2023/05/29 13:27:03;;;;;;;;;4.25;3.50;;;;;;;;5067380;27;45347;-68
2023/05/29 13:29:28;;;;;;;;;3.75;3.75;;;;;;;;5059078;28;45457;-66
2023/05/29 13:31:53;;;;;;;;;2.50;2.50;;;;;;;;5068695;28;45251;-65
2023/05/29 13:34:18;;;;;;;;;3.00;3.00;;;;;;;;5059185;28;46206;-68
2023/05/29 13:36:44;;;;;;;;;3.50;2.25;;;;;;;;5068815;28;45565;-67
2023/05/29 13:39:10;;;;;;;;;3.00;2.25;;;;;;;;5066713;28;45363;-68
2023/05/29 13:41:35;;;;;;;;;2.25;2.25;;;;;;;;5061745;27;45475;-67
2023/05/29 13:44:01;;;;;;;;;4.50;3.75;;;;;;;;5056131;28;45464;-67
2023/05/29 13:46:26;;;;;;;;;5.50;5.00;;;;;;;;5055204;28;45418;-67
2023/05/29 13:48:52;;;;;;;;;3.00;2.25;;;;;;;;5056266;28;45326;-67
2023/05/29 13:51:17;;;;;;;;;0.75;0.75;;;;;;;;5057015;28;45356;-70
2023/05/29 13:53:42;;;;;;;;;2.75;2.75;;;;;;;;5056458;28;46317;-69
2023/05/29 13:56:07;;;;;;;;;3.50;3.00;;;;;;;;5056134;28;45308;-69
2023/05/29 13:58:32;;;;;;;;;5.00;3.25;;;;;;;;5056630;28;45315;-69
2023/05/29 14:00:58;;;;;;;;;2.00;2.00;;;;;;;;5056289;28;45364;-69
2023/05/29 14:03:28;;;;;;;;;2.00;2.00;;;;;;;;5056463;28;45958;-68
2023/05/29 14:05:53;;;;;;;;;1.00;0.00;;;;;;;;5056605;28;45540;-67
2023/05/29 14:08:18;;;;;;;;;3.00;3.00;;;;;;;;5056202;28;45600;-68
2023/05/29 14:10:43;;;;;;;;;4.00;2.25;;;;;;;;5056105;28;45408;-67
2023/05/29 14:13:09;;;;;;;;;3.50;3.50;;;;;;;;5056461;28;45449;-67
2023/05/29 14:15:34;;;;;;;;;3.00;3.00;;;;;;;;5056302;28;45630;-67
2023/05/29 14:18:02;;;;;;;;;2.00;2.00;;;;;;;;5056403;28;45426;-68
2023/05/29 14:20:27;;;;;;;;;4.00;4.00;;;;;;;;5055864;28;45405;-68
2023/05/29 14:22:52;;;;;;;;;3.00;3.00;;;;;;;;5055092;28;45461;-67
2023/05/29 14:25:17;;;;;;;;;4.25;4.25;;;;;;;;5055627;28;45342;-68